Detall de PIREP

Printer-friendly versionPDF version

[2013/04/28 15:06:00]
Flight IATA:CT0001
Pilot Number:012
Company ICAO:CAT
Aircraft Type:DC3/A
PAX:0
Aircraft Registration:CARGO
Departing Airport: LERS
Destination Airport: LEGE
Alternate Airport:LEBL
Online: VATSIM
Route:VFR
Flight Level:A3000
No Slew and time accel
No pause
Crash detect
Detect pilot in Cockpit between each 30 and 45 minutes
15:06 Zero fuel Weight: 20225 Lbs, Fuel Weight: 2422 Lbs
15:06 VATSIM:LERS 281430Z 02007KT 350V060 9999 FEW025 OVC030 10/06 Q1007
15:06 VATSIM:LEGE 281430Z 02011KT 9999 SCT025 BKN036 08/05 Q1010
15:07 VOICE CATALONIAN
15:07 Parking Brakes off
15:10 Take-off
15:10 Take off Weight: 22627 Lbs
15:10 Wind: 031º @ 007 Knots Heading: 066º
15:10 POS N41º 08´ 53´´ E001º 10´ 09´´
15:10 Gear Up: 108 Knots
15:25 Wind:028º@009 Knots Heading: 072º Ground Speed: 145 Knots Altitude 3011 ft
15:40 Wind:021º@009 Knots Heading: 066º Ground Speed: 142 Knots Altitude 3001 ft
15:47 Flaps:1 at 123 Knots
15:48 Gear Down: 120 Knots
15:48 Flaps:2 at 103 Knots
15:49 Flaps:3 at 89 Knots
15:52 TouchDown:Rate -170 ft/min Speed: 67 Knots
15:52 Flaps:0 at 32 Knots
15:52 VATSIM:LEGE 281530Z 02008KT 340V050 9999 SCT028 BKN037 08/06 Q1010 RERA
15:52 Land
15:52 Wind:022º@011 Knots
15:52 Heading: 040º
15:52 Flight Duration: 00:42
15:52 Landing Weight: 22196 Lbs
15:52 POS N41º 54´ 01´´ E002º 45´ 37´´
15:53 Parking brakes on
15:53 Block to Block Duration: 00:46
15:53 Final Fuel: 1966 Lbls
15:53 Spent Fuel: 456 Lbls
15:53 Flight Length: 93 NM
15:53 TOD Land Length: 93 NM

Exportar CSV

Powered by Drupal - Modified by Danger4k